This is the latest recevied weather packets stored in our database for station/object DL3GCR-10. If no packets are shown the sender has not sent any weather packets the latest 1 day(s).
| Time | Temp. | Humidity | Pressure | Rain* | Wind** | Luminosity | Snow |
|---|---|---|---|---|---|---|---|
| 1778088144 | 12.22° C | 76% | 1010.7 hPa | - | - | - | - |
| 1778086343 | 12.22° C | 77% | 1010.7 hPa | - | - | - | - |
| 1778081848 | 12.78° C | 75% | 1010.7 hPa | - | - | - | - |
| 1778080948 | 12.78° C | 77% | 1010.6 hPa | - | - | - | - |
| 1778076446 | 13.89° C | 74% | 1010 hPa | - | - | - | - |
| 1778072845 | 15° C | 70% | 1009.7 hPa | - | - | - | - |
| 1778071945 | 16.67° C | 59% | 1009 hPa | - | - | - | - |
| 1778069244 | 17.22° C | 56% | 1008.9 hPa | - | - | - | - |
| 1778065643 | 17.22° C | 60% | 1009.1 hPa | - | - | - | - |
| 1778064742 | 16.67° C | 59% | 1009.2 hPa | - | - | - | - |
| 1778059347 | 16.11° C | 62% | 1009.2 hPa | - | - | - | - |
| 1778058447 | 15.56° C | 65% | 1009.2 hPa | - | - | - | - |
| 1778055746 | 15° C | 68% | 1009.2 hPa | - | - | - | - |
| 1778054846 | 15° C | 68% | 1009.1 hPa | - | - | - | - |
| 1778053946 | 15° C | 68% | 1009.1 hPa | - | - | - | - |
| 1778053046 | 14.44° C | 66% | 1009 hPa | - | - | - | - |
| 1778050345 | 13.33° C | 69% | 1009 hPa | - | - | - | - |
| 1778049445 | 13.33° C | 70% | 1009.1 hPa | - | - | - | - |
| 1778046744 | 11.67° C | 77% | 1009.3 hPa | - | - | - | - |
| 1778045843 | 11.67° C | 78% | 1009.3 hPa | - | - | - | - |
| 1778044942 | 11.11° C | 80% | 1009.5 hPa | - | - | - | - |
| 1778044042 | 10.56° C | 79% | 1009.5 hPa | - | - | - | - |
| 1778043142 | 10.56° C | 79% | 1009.5 hPa | - | - | - | - |
| 1778042241 | 10.56° C | 78% | 1009.5 hPa | - | - | - | - |
| 1778041346 | 10.56° C | 77% | 1009.6 hPa | - | - | - | - |
* Rain since midnight (hover to see other rain measurements)
** Current wind speed in m/s (hover to see current wind gust speed)